Time;durP1;ratioP1;P1;durP2;ratioP2;P2;SDS_P1;SDS_P2;PMS_P1;PMS_P2;Temp;Humidity;BMP_temperature;BMP_pressure;BME280_temperature;BME280_humidity;BME280_pressure;Samples;Min_cycle;Max_cycle;Signal;HPM_P1;HPM_P2
2023/05/18 00:02:04;;;;;;;7.95;2.47;;;8.10;99.90;;;;;;4944296;28;20081;-82
2023/05/18 00:04:33;;;;;;;11.57;2.72;;;8.10;99.90;;;;;;4976555;28;20486;-82
2023/05/18 00:07:02;;;;;;;9.65;2.53;;;8.20;99.90;;;;;;4944014;28;20047;-82
2023/05/18 00:09:33;;;;;;;9.75;2.58;;;8.10;99.90;;;;;;4944082;28;20049;-82
2023/05/18 00:12:00;;;;;;;9.73;2.57;;;8.20;99.90;;;;;;4976360;28;20065;-82
2023/05/18 00:14:27;;;;;;;7.68;2.30;;;8.10;99.90;;;;;;4943949;28;20078;-83
2023/05/18 00:16:53;;;;;;;8.38;2.47;;;8.10;99.90;;;;;;4928209;28;20039;-82
2023/05/18 00:19:23;;;;;;;8.73;2.50;;;8.10;99.90;;;;;;4959917;28;20082;-82
2023/05/18 00:21:50;;;;;;;9.27;2.30;;;8.00;99.90;;;;;;4943713;28;20046;-82
2023/05/18 00:24:16;;;;;;;10.15;2.30;;;8.00;99.90;;;;;;4943783;28;20051;-82
2023/05/18 00:26:44;;;;;;;9.20;2.65;;;8.00;99.90;;;;;;4943839;28;20047;-82
2023/05/18 00:29:11;;;;;;;7.35;2.42;;;8.00;99.90;;;;;;4943478;28;20089;-82
2023/05/18 00:31:38;;;;;;;7.70;2.47;;;7.90;99.90;;;;;;4974966;28;20134;-82
2023/05/18 00:34:08;;;;;;;10.30;2.78;;;7.90;99.90;;;;;;4975743;28;20086;-82
2023/05/18 00:36:35;;;;;;;8.68;2.30;;;7.90;99.90;;;;;;4927961;28;20505;-82
2023/05/18 00:39:02;;;;;;;8.10;2.47;;;7.80;99.90;;;;;;4944038;28;20137;-83
2023/05/18 00:41:28;;;;;;;7.55;2.28;;;7.60;99.90;;;;;;4943728;28;20047;-83
2023/05/18 00:43:54;;;;;;;9.15;2.20;;;7.50;99.90;;;;;;4975700;28;20038;-83
2023/05/18 00:46:21;;;;;;;9.70;2.80;;;7.50;99.90;;;;;;4988549;28;20035;-83
2023/05/18 00:48:48;;;;;;;9.00;2.58;;;7.50;99.90;;;;;;4983376;28;20057;-83
2023/05/18 00:51:14;;;;;;;7.68;2.35;;;7.60;99.90;;;;;;5000169;28;20034;-83
2023/05/18 00:53:42;;;;;;;6.47;2.20;;;7.50;99.90;;;;;;4950394;28;20058;-83
2023/05/18 00:56:09;;;;;;;7.85;2.60;;;7.50;99.90;;;;;;4945960;28;20101;-82
2023/05/18 00:58:37;;;;;;;7.93;2.47;;;7.50;99.90;;;;;;4944993;28;20454;-83
2023/05/18 01:01:04;;;;;;;9.27;2.58;;;7.40;99.90;;;;;;4975954;28;20046;-83
2023/05/18 01:03:33;;;;;;;7.85;2.42;;;7.40;99.90;;;;;;4943953;28;20050;-83
2023/05/18 01:05:58;;;;;;;7.47;2.53;;;7.30;99.90;;;;;;4959151;28;20044;-83
2023/05/18 01:08:26;;;;;;;10.10;2.95;;;7.30;99.90;;;;;;4943023;28;20102;-83
2023/05/18 01:11:01;;;;;;;8.73;2.70;;;7.20;99.90;;;;;;4975069;28;20050;-83
2023/05/18 01:13:43;;;;;;;9.65;2.60;;;7.10;99.90;;;;;;4974977;28;20050;-83
2023/05/18 01:16:16;;;;;;;8.35;2.60;;;7.10;99.90;;;;;;4975225;28;20039;-83
2023/05/18 01:19:00;;;;;;;8.30;2.70;;;7.10;99.90;;;;;;4975481;28;20406;-83
2023/05/18 01:21:48;;;;;;;9.85;2.40;;;7.00;99.90;;;;;;4974859;28;20125;-83
2023/05/18 01:24:44;;;;;;;8.05;2.20;;;7.00;99.90;;;;;;4974692;28;20045;-83
2023/05/18 01:27:18;;;;;;;6.05;2.20;;;7.00;99.90;;;;;;4974654;28;20045;-83
2023/05/18 01:29:48;;;;;;;7.43;2.42;;;6.90;99.90;;;;;;4942848;28;20047;-83
2023/05/18 01:32:21;;;;;;;8.60;2.50;;;7.00;99.90;;;;;;4926646;28;20055;-83
2023/05/18 01:34:48;;;;;;;8.50;2.35;;;7.00;99.90;;;;;;4942595;28;20093;-83
2023/05/18 01:37:14;;;;;;;7.35;2.38;;;7.00;99.90;;;;;;4974574;28;20115;-83
2023/05/18 01:39:41;;;;;;;7.35;2.33;;;7.00;99.90;;;;;;4926988;28;20494;-82
2023/05/18 01:42:14;;;;;;;7.13;2.15;;;7.00;99.90;;;;;;4942492;28;20129;-82
2023/05/18 01:44:47;;;;;;;8.77;2.50;;;7.00;99.90;;;;;;4974715;28;20490;-82
2023/05/18 01:47:15;;;;;;;8.73;2.60;;;7.00;99.90;;;;;;4974588;28;20046;-82
2023/05/18 01:49:53;;;;;;;8.65;2.50;;;7.00;99.90;;;;;;4942419;28;20054;-82
2023/05/18 01:52:43;;;;;;;8.50;2.47;;;6.90;99.90;;;;;;4974171;28;20043;-82
2023/05/18 01:55:10;;;;;;;8.38;2.50;;;6.90;99.90;;;;;;4974444;28;20053;-82
2023/05/18 01:57:40;;;;;;;7.90;2.40;;;6.90;99.90;;;;;;4974218;28;20050;-82
2023/05/18 02:00:08;;;;;;;7.55;2.47;;;6.90;99.90;;;;;;4974056;28;20043;-82
2023/05/18 02:02:35;;;;;;;8.52;2.20;;;6.90;99.90;;;;;;4942335;28;20049;-82
2023/05/18 02:05:01;;;;;;;6.32;2.05;;;6.80;99.90;;;;;;4942023;28;20054;-83
2023/05/18 02:07:26;;;;;;;6.07;2.38;;;6.80;99.90;;;;;;4926191;28;20125;-83
2023/05/18 02:09:52;;;;;;;7.25;2.33;;;6.80;99.90;;;;;;4941834;28;20189;-82
2023/05/18 02:12:18;;;;;;;7.80;2.70;;;6.70;99.90;;;;;;4941875;28;20061;-82
2023/05/18 02:14:44;;;;;;;9.88;2.70;;;6.70;99.90;;;;;;4941951;28;20042;-82
2023/05/18 02:17:10;;;;;;;7.68;2.45;;;6.70;99.90;;;;;;4941654;28;20041;-82
2023/05/18 02:19:36;;;;;;;9.20;2.42;;;6.60;99.90;;;;;;4926107;28;20038;-83
2023/05/18 02:22:06;;;;;;;8.77;2.47;;;6.70;99.90;;;;;;4910724;28;20057;-83
2023/05/18 02:24:33;;;;;;;7.50;2.67;;;6.70;99.90;;;;;;4926685;28;20073;-83
2023/05/18 02:27:00;;;;;;;9.68;2.80;;;6.70;99.90;;;;;;4973871;28;20509;-83
2023/05/18 02:29:26;;;;;;;8.98;2.35;;;6.40;99.90;;;;;;4910664;28;20102;-83
2023/05/18 02:31:51;;;;;;;7.57;2.60;;;6.60;99.90;;;;;;4973218;28;20254;-83
2023/05/18 02:34:18;;;;;;;7.65;2.55;;;6.50;99.90;;;;;;4941851;28;20043;-83
2023/05/18 02:36:44;;;;;;;8.55;2.60;;;6.50;99.90;;;;;;4941565;28;20039;-83
2023/05/18 02:39:13;;;;;;;8.27;2.67;;;6.50;99.90;;;;;;4942060;28;20066;-82
2023/05/18 02:41:39;;;;;;;7.10;2.28;;;6.40;99.90;;;;;;4973467;28;20105;-83
2023/05/18 02:44:05;;;;;;;6.97;2.35;;;6.30;99.90;;;;;;4941251;28;20042;-83
2023/05/18 02:46:31;;;;;;;7.63;2.60;;;6.30;99.90;;;;;;4941243;28;20050;-83
2023/05/18 02:48:58;;;;;;;8.82;2.50;;;6.30;99.90;;;;;;4925496;28;20043;-83
2023/05/18 02:51:23;;;;;;;11.63;3.50;;;6.30;99.90;;;;;;4957165;28;20402;-82
2023/05/18 02:53:50;;;;;;;7.22;2.75;;;6.10;99.90;;;;;;4940813;28;20066;-83
2023/05/18 02:56:19;;;;;;;8.27;2.47;;;6.00;99.90;;;;;;4909498;28;20088;-83
2023/05/18 02:58:44;;;;;;;8.40;2.40;;;6.00;99.90;;;;;;4941015;28;20100;-83
2023/05/18 03:01:13;;;;;;;9.63;2.53;;;6.10;99.90;;;;;;4941414;28;20034;-83
2023/05/18 03:03:40;;;;;;;6.60;2.40;;;6.00;99.90;;;;;;4925504;28;20047;-83
2023/05/18 03:06:07;;;;;;;7.78;2.10;;;6.00;99.90;;;;;;4973400;28;20430;-83
2023/05/18 03:08:35;;;;;;;6.90;2.40;;;6.00;99.90;;;;;;4925562;28;20364;-83
2023/05/18 03:11:02;;;;;;;8.40;2.28;;;6.00;99.90;;;;;;4940910;28;20094;-83
2023/05/18 03:13:28;;;;;;;7.95;2.50;;;6.00;99.90;;;;;;4973053;28;20038;-83
2023/05/18 03:15:55;;;;;;;9.18;2.65;;;6.10;99.90;;;;;;4940906;28;20039;-83
2023/05/18 03:18:21;;;;;;;8.05;2.60;;;6.10;99.90;;;;;;4940791;28;20035;-82
2023/05/18 03:20:50;;;;;;;8.15;2.50;;;6.00;99.90;;;;;;4941206;28;20049;-82
2023/05/18 03:23:17;;;;;;;7.60;2.60;;;6.00;99.90;;;;;;4941715;28;20386;-82
2023/05/18 03:25:43;;;;;;;9.68;2.83;;;6.00;99.90;;;;;;4925310;28;20050;-82
2023/05/18 03:28:09;;;;;;;7.63;2.47;;;5.90;99.90;;;;;;4925398;28;20395;-82
2023/05/18 03:30:35;;;;;;;7.25;2.50;;;5.90;99.90;;;;;;4972723;28;20047;-82
2023/05/18 03:33:01;;;;;;;7.85;2.90;;;5.80;99.90;;;;;;4940864;28;20415;-83
2023/05/18 03:35:28;;;;;;;8.35;2.70;;;5.70;99.90;;;;;;4973160;28;20394;-83
2023/05/18 03:37:54;;;;;;;7.55;2.63;;;5.80;99.90;;;;;;4956832;28;20035;-83
2023/05/18 03:40:20;;;;;;;8.68;3.10;;;5.80;99.90;;;;;;4941115;28;20031;-82
2023/05/18 03:42:46;;;;;;;6.68;2.50;;;5.70;99.90;;;;;;4972831;28;20050;-82
2023/05/18 03:45:12;;;;;;;7.95;2.60;;;5.60;99.90;;;;;;4924976;28;20051;-83
2023/05/18 03:47:38;;;;;;;8.77;2.53;;;5.60;99.90;;;;;;4973040;28;20049;-82
2023/05/18 03:50:06;;;;;;;6.60;2.30;;;5.60;99.90;;;;;;4940620;28;20046;-82
2023/05/18 03:52:33;;;;;;;6.88;2.40;;;5.60;99.90;;;;;;4972739;28;20039;-82
2023/05/18 03:55:00;;;;;;;7.43;2.22;;;5.70;99.90;;;;;;4940782;28;20047;-83
2023/05/18 03:57:28;;;;;;;8.35;2.60;;;5.70;99.90;;;;;;4956775;28;20043;-83
2023/05/18 03:59:54;;;;;;;8.77;2.60;;;5.80;99.90;;;;;;4940937;28;20486;-82
2023/05/18 04:02:20;;;;;;;8.70;2.90;;;5.80;99.90;;;;;;4940605;28;20046;-82
2023/05/18 04:04:46;;;;;;;10.75;3.15;;;5.70;99.90;;;;;;4974403;28;20133;-82
2023/05/18 04:07:15;;;;;;;7.35;2.55;;;5.70;99.90;;;;;;4976461;28;20070;-83
2023/05/18 04:09:41;;;;;;;8.27;2.58;;;5.60;99.90;;;;;;4944410;28;20483;-83
2023/05/18 04:12:07;;;;;;;9.85;2.78;;;5.60;99.90;;;;;;4944108;28;20047;-82
2023/05/18 04:14:33;;;;;;;10.02;2.90;;;5.60;99.90;;;;;;4944008;28;20110;-82
2023/05/18 04:17:04;;;;;;;8.38;2.67;;;5.50;99.90;;;;;;4976349;28;20051;-83
2023/05/18 04:19:34;;;;;;;8.05;2.67;;;5.50;99.90;;;;;;4976289;28;20034;-83
2023/05/18 04:22:03;;;;;;;7.63;2.90;;;5.50;99.90;;;;;;4943985;28;20051;-82
2023/05/18 04:24:31;;;;;;;11.85;3.25;;;5.40;99.90;;;;;;4976236;28;20502;-82
2023/05/18 04:27:00;;;;;;;9.27;2.88;;;5.50;99.90;;;;;;4975932;28;20043;-82
2023/05/18 04:29:27;;;;;;;8.65;2.67;;;5.40;99.90;;;;;;4943777;28;20159;-83
2023/05/18 04:31:58;;;;;;;10.23;3.30;;;5.40;99.90;;;;;;4943586;28;20086;-82
2023/05/18 04:34:25;;;;;;;6.95;2.78;;;5.50;99.90;;;;;;4943964;28;20502;-82
2023/05/18 04:36:53;;;;;;;6.97;2.88;;;5.40;99.90;;;;;;4943644;28;20043;-83
2023/05/18 04:39:22;;;;;;;7.72;3.00;;;5.40;99.90;;;;;;4975696;28;20039;-82
2023/05/18 04:41:49;;;;;;;9.93;3.17;;;5.40;99.90;;;;;;4975574;28;20046;-82
2023/05/18 04:44:18;;;;;;;9.20;3.55;;;5.50;99.90;;;;;;4927669;28;20074;-82
2023/05/18 04:46:46;;;;;;;9.45;3.67;;;5.40;99.90;;;;;;4943597;28;20046;-82
2023/05/18 04:49:12;;;;;;;9.15;3.80;;;5.40;99.90;;;;;;4943351;28;20049;-82
2023/05/18 04:51:40;;;;;;;11.32;4.28;;;5.50;99.90;;;;;;4943572;28;20513;-82
2023/05/18 04:54:07;;;;;;;13.88;4.43;;;5.60;99.90;;;;;;4912354;28;20043;-82
2023/05/18 04:56:34;;;;;;;11.55;4.50;;;5.60;99.90;;;;;;4943405;28;20105;-82
2023/05/18 04:59:03;;;;;;;8.52;4.35;;;5.70;99.90;;;;;;4927465;28;20050;-82
2023/05/18 05:01:28;;;;;;;10.18;4.57;;;5.80;99.90;;;;;;4943409;28;20553;-83
2023/05/18 05:03:54;;;;;;;10.43;4.03;;;5.80;99.90;;;;;;4927995;28;20047;-83
2023/05/18 05:06:22;;;;;;;11.15;4.22;;;5.90;99.90;;;;;;4943294;28;20094;-83
2023/05/18 05:08:51;;;;;;;10.55;4.13;;;6.00;99.90;;;;;;4927501;28;20047;-83
2023/05/18 05:11:17;;;;;;;10.82;4.10;;;6.10;99.90;;;;;;4942938;28;20481;-83
2023/05/18 05:13:43;;;;;;;12.45;5.00;;;6.20;99.90;;;;;;4943139;28;20050;-83
2023/05/18 05:16:09;;;;;;;10.35;3.83;;;6.30;99.90;;;;;;4942569;28;20050;-82
2023/05/18 05:18:34;;;;;;;12.45;3.97;;;6.40;99.90;;;;;;4942870;28;20043;-82
2023/05/18 05:21:00;;;;;;;12.07;3.75;;;6.40;99.90;;;;;;4974861;28;20047;-83
2023/05/18 05:23:26;;;;;;;10.00;4.00;;;6.60;99.90;;;;;;4959091;28;20132;-82
2023/05/18 05:25:52;;;;;;;14.18;3.97;;;6.60;99.90;;;;;;4942853;28;20057;-82
2023/05/18 05:28:18;;;;;;;12.25;3.70;;;6.70;99.90;;;;;;4975016;28;20482;-82
2023/05/18 05:30:43;;;;;;;11.38;3.28;;;6.80;99.90;;;;;;4974995;28;20503;-82
2023/05/18 05:33:09;;;;;;;11.00;3.70;;;6.80;99.90;;;;;;4942462;28;20058;-82
2023/05/18 05:35:35;;;;;;;10.13;3.05;;;6.90;99.90;;;;;;4974967;28;20134;-82
2023/05/18 05:38:04;;;;;;;12.20;4.03;;;6.90;99.90;;;;;;4942639;28;20550;-82
2023/05/18 05:40:30;;;;;;;10.13;3.17;;;7.00;99.90;;;;;;4975148;28;20074;-82
2023/05/18 05:42:55;;;;;;;8.75;3.17;;;7.10;99.90;;;;;;4942819;28;20039;-82
2023/05/18 05:45:22;;;;;;;10.32;3.28;;;7.20;99.90;;;;;;4942983;28;20049;-82
2023/05/18 05:47:51;;;;;;;9.75;3.53;;;7.30;99.90;;;;;;4974651;28;20558;-82
2023/05/18 05:50:19;;;;;;;9.00;3.33;;;7.40;99.90;;;;;;4974651;28;20098;-82
2023/05/18 05:52:45;;;;;;;10.35;3.47;;;7.50;99.90;;;;;;4958283;28;20410;-82
2023/05/18 05:55:11;;;;;;;11.18;3.45;;;7.60;99.90;;;;;;4926351;28;20046;-82
2023/05/18 05:57:41;;;;;;;10.60;3.33;;;7.70;99.90;;;;;;4974405;28;20038;-82
2023/05/18 06:00:14;;;;;;;11.93;3.10;;;7.80;99.90;;;;;;4942297;28;20482;-82
2023/05/18 06:02:40;;;;;;;10.30;3.47;;;7.80;99.90;;;;;;4942196;28;20505;-82
2023/05/18 06:05:09;;;;;;;8.18;3.03;;;8.00;99.90;;;;;;4941943;28;20047;-82
2023/05/18 06:07:35;;;;;;;11.38;3.20;;;8.10;99.90;;;;;;4973959;28;20047;-81
2023/05/18 06:10:02;;;;;;;9.77;3.40;;;8.20;99.90;;;;;;4926142;28;20039;-82
2023/05/18 06:12:28;;;;;;;10.07;3.10;;;8.20;99.90;;;;;;4941849;28;20047;-82
2023/05/18 06:14:57;;;;;;;11.38;3.13;;;8.30;99.90;;;;;;4941891;28;20111;-82
2023/05/18 06:17:26;;;;;;;8.85;2.90;;;8.40;99.90;;;;;;4941732;28;20054;-82
2023/05/18 06:19:55;;;;;;;11.23;4.97;;;8.50;99.90;;;;;;4973850;28;20054;-81
2023/05/18 06:22:22;;;;;;;9.50;2.85;;;8.50;99.90;;;;;;4942025;28;20042;-82
2023/05/18 06:24:47;;;;;;;10.95;2.90;;;8.40;99.90;;;;;;4973703;28;20089;-82
2023/05/18 06:27:13;;;;;;;9.63;2.50;;;8.50;99.90;;;;;;4925343;28;20507;-82
2023/05/18 06:29:39;;;;;;;8.85;2.50;;;8.60;99.90;;;;;;4925957;28;20410;-82
2023/05/18 06:32:06;;;;;;;11.30;3.00;;;8.60;99.90;;;;;;4973358;28;20138;-82
2023/05/18 06:34:31;;;;;;;12.25;2.80;;;8.70;99.90;;;;;;4941984;28;20066;-83
2023/05/18 06:36:57;;;;;;;11.10;2.88;;;8.70;99.90;;;;;;4941450;28;20043;-82
2023/05/18 06:39:23;;;;;;;14.00;2.92;;;8.80;99.90;;;;;;4973631;28;20045;-82
2023/05/18 06:41:50;;;;;;;10.70;2.40;;;8.80;99.90;;;;;;4931253;28;20035;-83
2023/05/18 06:44:16;;;;;;;10.98;2.60;;;8.80;99.90;;;;;;4996720;28;20047;-82
2023/05/18 06:46:42;;;;;;;8.82;2.40;;;8.90;99.90;;;;;;4965551;28;20042;-83
2023/05/18 06:49:08;;;;;;;10.38;2.70;;;8.90;99.90;;;;;;4965866;28;20057;-82
2023/05/18 06:51:34;;;;;;;8.00;2.20;;;9.00;99.90;;;;;;4952958;28;20137;-81
2023/05/18 06:53:59;;;;;;;9.57;2.40;;;9.10;99.90;;;;;;4943816;28;20042;-82
2023/05/18 06:56:25;;;;;;;9.82;2.30;;;9.10;99.90;;;;;;4942524;28;20041;-82
2023/05/18 06:58:51;;;;;;;9.48;2.25;;;9.20;99.90;;;;;;4957734;28;20043;-82
2023/05/18 07:01:18;;;;;;;9.30;2.53;;;9.10;99.90;;;;;;4973422;28;20512;-82
2023/05/18 07:03:43;;;;;;;9.48;2.67;;;9.20;99.90;;;;;;4941364;28;20047;-82
2023/05/18 07:06:09;;;;;;;8.95;2.30;;;9.30;99.90;;;;;;4941837;28;20125;-82
2023/05/18 07:08:39;;;;;;;10.25;2.42;;;9.40;99.90;;;;;;4957077;28;20042;-82
2023/05/18 07:11:05;;;;;;;8.55;2.00;;;9.50;99.90;;;;;;4925913;28;20524;-82
2023/05/18 07:13:31;;;;;;;8.20;2.22;;;9.60;99.90;;;;;;4940982;28;20074;-82
2023/05/18 07:15:57;;;;;;;10.18;2.40;;;9.60;99.90;;;;;;4973164;28;20146;-81
2023/05/18 07:18:23;;;;;;;9.15;2.28;;;9.60;99.90;;;;;;4973263;28;20039;-82
2023/05/18 07:20:49;;;;;;;8.85;2.00;;;9.60;99.90;;;;;;4972945;28;20046;-82
2023/05/18 07:23:15;;;;;;;11.05;2.67;;;9.60;99.90;;;;;;4941075;28;20043;-81
2023/05/18 07:25:41;;;;;;;10.57;2.53;;;9.70;99.90;;;;;;4925299;28;20047;-82
2023/05/18 07:28:07;;;;;;;9.82;2.67;;;9.80;99.90;;;;;;4925230;28;20093;-81
2023/05/18 07:30:33;;;;;;;7.38;2.30;;;9.70;99.90;;;;;;4973151;28;20446;-83
2023/05/18 07:32:59;;;;;;;10.02;2.25;;;10.00;99.90;;;;;;4940807;28;20082;-83
2023/05/18 07:35:25;;;;;;;9.43;2.30;;;9.90;99.90;;;;;;4925141;28;20082;-83
2023/05/18 07:37:52;;;;;;;8.50;2.53;;;10.00;99.90;;;;;;4973079;28;20463;-82
2023/05/18 07:40:21;;;;;;;10.23;2.58;;;10.10;99.90;;;;;;4975684;28;20174;-82
2023/05/18 07:42:47;;;;;;;7.45;2.13;;;10.20;99.90;;;;;;4944591;28;20121;-82
2023/05/18 07:45:13;;;;;;;11.73;2.65;;;10.40;99.90;;;;;;4976932;28;20081;-82
2023/05/18 07:47:41;;;;;;;11.27;2.55;;;10.50;99.90;;;;;;4944500;28;20049;-83
2023/05/18 07:50:08;;;;;;;10.02;2.47;;;10.60;97.20;;;;;;4944377;28;20049;-83
2023/05/18 07:52:36;;;;;;;8.82;2.47;;;10.80;98.90;;;;;;4944576;28;20054;-82
2023/05/18 07:55:04;;;;;;;11.93;2.47;;;10.90;98.80;;;;;;4944854;28;20054;-83
2023/05/18 07:57:30;;;;;;;8.35;2.00;;;10.80;96.70;;;;;;4944624;28;20093;-83
2023/05/18 07:59:56;;;;;;;10.07;2.40;;;11.00;98.60;;;;;;4944488;28;20038;-83
2023/05/18 08:02:22;;;;;;;9.60;2.50;;;11.20;98.80;;;;;;4944290;28;20046;-82
2023/05/18 08:04:48;;;;;;;10.45;2.50;;;11.30;96.40;;;;;;4976549;28;20034;-83
2023/05/18 08:07:14;;;;;;;8.05;2.50;;;11.20;96.50;;;;;;4976439;28;20042;-83
2023/05/18 08:09:40;;;;;;;8.63;2.40;;;11.20;96.50;;;;;;4976482;28;20050;-83
2023/05/18 08:12:06;;;;;;;8.20;2.30;;;11.20;94.60;;;;;;4942449;28;20048;-84
2023/05/18 08:14:32;;;;;;;8.93;2.38;;;11.30;96.70;;;;;;4910536;29;20051;-83
2023/05/18 08:16:58;;;;;;;10.05;2.45;;;11.40;94.00;;;;;;4956865;28;20411;-83
2023/05/18 08:19:24;;;;;;;9.13;2.40;;;11.50;93.80;;;;;;4925372;29;20036;-84
2023/05/18 08:21:50;;;;;;;8.68;2.47;;;11.40;94.40;;;;;;4925106;29;20043;-83
2023/05/18 08:24:16;;;;;;;9.73;2.03;;;11.40;93.70;;;;;;4956501;29;20407;-83
2023/05/18 08:26:42;;;;;;;9.48;2.45;;;11.60;93.60;;;;;;4956639;28;20090;-84
2023/05/18 08:29:10;;;;;;;9.80;2.33;;;11.60;94.40;;;;;;4956483;29;20050;-84
2023/05/18 08:31:36;;;;;;;8.50;2.22;;;11.80;95.50;;;;;;4956259;29;20138;-83
2023/05/18 08:34:03;;;;;;;9.95;2.40;;;12.30;92.80;;;;;;4956752;29;20055;-83
2023/05/18 08:36:30;;;;;;;8.07;2.15;;;12.70;93.40;;;;;;4959040;28;20058;-85
2023/05/18 08:38:56;;;;;;;9.23;2.25;;;13.20;92.50;;;;;;4959619;28;20051;-85
2023/05/18 08:41:34;;;;;;;7.25;2.20;;;13.80;92.00;;;;;;4943506;28;20494;-86
2023/05/18 08:44:05;;;;;;;9.43;2.10;;;14.20;86.80;;;;;;4959559;28;20046;-86
2023/05/18 08:46:47;;;;;;;7.00;2.00;;;14.40;85.00;;;;;;4943493;28;20039;-85
2023/05/18 08:49:20;;;;;;;9.00;2.40;;;14.70;83.20;;;;;;4943703;28;20490;-85
2023/05/18 08:51:53;;;;;;;9.10;2.38;;;14.90;82.60;;;;;;4942434;28;20105;-85
2023/05/18 08:54:20;;;;;;;9.30;2.33;;;14.80;76.20;;;;;;4975402;28;20070;-84
2023/05/18 08:56:47;;;;;;;6.95;1.98;;;14.60;75.70;;;;;;4975416;28;20039;-86
2023/05/18 08:59:17;;;;;;;7.38;2.00;;;14.50;73.70;;;;;;4959197;28;20038;-85
2023/05/18 09:01:43;;;;;;;7.72;2.33;;;14.90;80.60;;;;;;4975473;28;20509;-85
2023/05/18 09:04:10;;;;;;;6.80;2.10;;;14.70;77.20;;;;;;4959453;28;20047;-85
2023/05/18 09:06:36;;;;;;;8.38;2.20;;;14.90;77.20;;;;;;4975089;28;20046;-85
2023/05/18 09:09:05;;;;;;;8.07;2.33;;;15.10;74.10;;;;;;4943167;28;20050;-85
2023/05/18 09:11:34;;;;;;;7.88;2.20;;;15.10;76.00;;;;;;4959225;28;20053;-85
2023/05/18 09:14:00;;;;;;;9.45;2.35;;;15.40;75.90;;;;;;4943045;28;20047;-84
2023/05/18 09:16:27;;;;;;;9.13;2.38;;;15.40;69.00;;;;;;4943283;28;20061;-84
2023/05/18 09:18:53;;;;;;;8.13;2.20;;;15.10;70.70;;;;;;4959143;28;20398;-85
2023/05/18 09:21:19;;;;;;;10.02;2.40;;;15.00;71.70;;;;;;4927157;28;20046;-83
2023/05/18 09:23:46;;;;;;;7.50;2.40;;;14.80;72.60;;;;;;4958820;28;20047;-83
2023/05/18 09:26:12;;;;;;;8.05;2.30;;;15.00;69.80;;;;;;4958672;28;20156;-82
2023/05/18 09:28:40;;;;;;;6.90;2.10;;;15.20;73.30;;;;;;4942966;28;20067;-83
2023/05/18 09:31:08;;;;;;;8.15;2.40;;;15.40;69.50;;;;;;4974789;28;20451;-83
2023/05/18 09:33:36;;;;;;;6.47;2.28;;;15.50;67.20;;;;;;4958392;28;20149;-83
2023/05/18 09:36:05;;;;;;;7.75;2.40;;;15.40;66.80;;;;;;4974895;28;20030;-83
2023/05/18 09:38:36;;;;;;;8.70;2.42;;;15.50;67.60;;;;;;4942457;28;20050;-82
2023/05/18 09:41:08;;;;;;;7.97;2.30;;;15.30;67.80;;;;;;4974463;28;20050;-82
2023/05/18 09:43:34;;;;;;;6.40;2.30;;;15.60;71.60;;;;;;4942335;28;20086;-83
2023/05/18 09:46:08;;;;;;;8.77;2.47;;;15.70;67.90;;;;;;4974724;28;20558;-83
2023/05/18 09:48:45;;;;;;;8.40;2.30;;;15.80;71.10;;;;;;4942347;28;20053;-83
2023/05/18 09:51:17;;;;;;;10.00;2.55;;;15.80;68.30;;;;;;4974279;28;20038;-83
2023/05/18 09:53:57;;;;;;;9.32;2.40;;;15.60;65.40;;;;;;4974363;28;20133;-82
2023/05/18 09:56:24;;;;;;;8.77;2.50;;;15.30;65.00;;;;;;4974268;28;20039;-81
2023/05/18 09:58:50;;;;;;;10.25;2.33;;;15.10;66.40;;;;;;4942511;28;20495;-82
2023/05/18 10:01:16;;;;;;;11.00;2.42;;;15.30;70.30;;;;;;4942348;28;20039;-83
2023/05/18 10:03:44;;;;;;;10.00;2.50;;;15.60;67.90;;;;;;4942239;28;20126;-83
2023/05/18 10:06:13;;;;;;;9.25;2.47;;;15.80;65.50;;;;;;4942570;28;20049;-82
2023/05/18 10:08:40;;;;;;;8.40;2.47;;;15.70;66.50;;;;;;4923421;29;20043;-83
2023/05/18 10:11:06;;;;;;;9.73;2.70;;;15.80;67.50;;;;;;4954960;29;20044;-82
2023/05/18 10:13:33;;;;;;;7.80;2.28;;;15.90;67.10;;;;;;4922890;29;20047;-83
2023/05/18 10:16:06;;;;;;;8.32;2.55;;;16.20;68.00;;;;;;4954924;29;20043;-83
2023/05/18 10:18:35;;;;;;;8.57;2.38;;;16.30;65.40;;;;;;4954904;29;20536;-83
2023/05/18 10:21:03;;;;;;;7.18;2.38;;;16.30;63.70;;;;;;4954480;29;20043;-83
2023/05/18 10:23:34;;;;;;;9.13;2.50;;;16.20;61.70;;;;;;4954500;29;20047;-83
2023/05/18 10:26:03;;;;;;;9.20;2.67;;;16.20;62.80;;;;;;4954756;29;20511;-84
2023/05/18 10:28:46;;;;;;;7.60;2.67;;;16.20;62.60;;;;;;4954641;29;20284;-83
2023/05/18 10:31:15;;;;;;;10.30;2.78;;;16.40;61.20;;;;;;4954160;29;20047;-85
2023/05/18 10:33:43;;;;;;;7.35;2.60;;;16.00;63.60;;;;;;4922461;29;20083;-84
2023/05/18 10:36:10;;;;;;;7.85;2.22;;;16.10;63.20;;;;;;4938308;29;20043;-83
2023/05/18 10:38:41;;;;;;;8.43;2.70;;;16.10;64.30;;;;;;4954464;29;20031;-85
2023/05/18 10:41:08;;;;;;;7.20;2.47;;;16.00;60.40;;;;;;4938285;29;20054;-84
2023/05/18 10:43:35;;;;;;;9.70;2.53;;;15.90;63.70;;;;;;4938891;29;20125;-83
2023/05/18 10:46:01;;;;;;;9.38;2.90;;;15.90;65.20;;;;;;4938373;29;20471;-87
2023/05/18 10:48:30;;;;;;;8.05;2.72;;;15.70;65.00;;;;;;4938093;29;20134;-84
2023/05/18 10:50:57;;;;;;;8.38;2.70;;;15.70;65.70;;;;;;4938041;29;20101;-84
2023/05/18 10:53:30;;;;;;;8.27;2.90;;;15.80;66.50;;;;;;4937927;29;20073;-84
2023/05/18 10:55:57;;;;;;;8.85;2.90;;;15.60;64.10;;;;;;4907524;29;20075;-83
2023/05/18 10:58:28;;;;;;;9.50;2.90;;;15.70;66.50;;;;;;4938154;29;20456;-84
2023/05/18 11:00:58;;;;;;;7.60;2.80;;;15.90;66.60;;;;;;4922215;29;20043;-84
2023/05/18 11:03:25;;;;;;;9.15;2.70;;;16.00;65.00;;;;;;4938193;29;20306;-84
2023/05/18 11:06:13;;;;;;;9.25;3.10;;;16.20;68.90;;;;;;4922493;29;20043;-83
2023/05/18 11:08:47;;;;;;;10.30;2.70;;;16.10;65.00;;;;;;4953906;29;20186;-84
2023/05/18 11:11:14;;;;;;;10.40;3.10;;;16.20;69.40;;;;;;4937870;29;20054;-84
2023/05/18 11:13:46;;;;;;;8.32;2.65;;;16.20;68.30;;;;;;4937185;29;20093;-84
2023/05/18 11:16:17;;;;;;;7.40;2.80;;;16.50;67.70;;;;;;4937730;29;20055;-85
2023/05/18 11:18:48;;;;;;;8.40;2.53;;;16.30;66.80;;;;;;4937952;29;20403;-85
2023/05/18 11:21:23;;;;;;;11.57;3.28;;;16.20;66.40;;;;;;4922342;29;20043;-84
2023/05/18 11:24:24;;;;;;;8.63;2.90;;;16.20;63.80;;;;;;4937942;29;20480;-85
2023/05/18 11:27:14;;;;;;;8.55;2.55;;;16.50;69.90;;;;;;4937597;29;20126;-84
2023/05/18 11:29:48;;;;;;;8.45;2.75;;;16.40;66.90;;;;;;4937726;29;20039;-85
2023/05/18 11:32:27;;;;;;;7.35;2.63;;;16.40;66.60;;;;;;4937608;29;20048;-86
2023/05/18 11:34:53;;;;;;;8.95;2.40;;;16.90;64.90;;;;;;4922562;29;20134;-85
2023/05/18 11:37:37;;;;;;;7.65;2.78;;;17.00;62.60;;;;;;4946970;28;20034;-85
2023/05/18 11:40:15;;;;;;;9.70;2.70;;;16.80;65.20;;;;;;4940670;28;20042;-85
2023/05/18 11:42:41;;;;;;;6.93;2.75;;;17.00;65.90;;;;;;4940802;28;20101;-86
2023/05/18 11:45:11;;;;;;;8.38;2.90;;;17.20;63.50;;;;;;4973061;28;20047;-86
2023/05/18 11:47:40;;;;;;;8.65;2.80;;;17.30;60.00;;;;;;4941567;28;20487;-86
2023/05/18 11:50:07;;;;;;;9.45;2.90;;;17.10;63.80;;;;;;4941021;28;20047;-86
2023/05/18 11:52:45;;;;;;;8.32;2.75;;;17.00;63.60;;;;;;4972787;28;20050;-86
2023/05/18 11:55:13;;;;;;;8.23;2.72;;;17.10;63.80;;;;;;4940791;28;20038;-85
2023/05/18 11:57:42;;;;;;;7.80;2.65;;;16.90;60.70;;;;;;4972680;28;20186;-85
2023/05/18 12:00:14;;;;;;;9.57;2.78;;;16.80;64.00;;;;;;4972664;28;20097;-85
2023/05/18 12:02:45;;;;;;;8.00;2.58;;;16.90;64.70;;;;;;4941497;28;20049;-84
2023/05/18 12:05:11;;;;;;;6.82;2.60;;;17.00;63.40;;;;;;4972610;28;20134;-86
2023/05/18 12:07:38;;;;;;;8.30;2.60;;;16.90;64.70;;;;;;4940554;28;20110;-86
2023/05/18 12:10:07;;;;;;;7.43;2.80;;;16.40;64.00;;;;;;4940552;28;20126;-86
2023/05/18 12:12:33;;;;;;;7.38;2.58;;;16.60;64.70;;;;;;4940484;28;20050;-86
2023/05/18 12:15:01;;;;;;;8.73;3.00;;;16.70;66.80;;;;;;4940604;28;20051;-86
2023/05/18 12:17:44;;;;;;;8.55;2.78;;;16.80;64.90;;;;;;4972495;28;20105;-87
2023/05/18 12:20:18;;;;;;;7.65;2.83;;;17.10;62.10;;;;;;4940577;28;20070;-84
2023/05/18 12:22:51;;;;;;;7.15;2.90;;;16.70;63.00;;;;;;4940793;28;20101;-86
2023/05/18 12:25:18;;;;;;;8.93;2.95;;;16.90;64.30;;;;;;4972721;28;20149;-86
2023/05/18 12:27:48;;;;;;;8.63;2.60;;;16.90;64.80;;;;;;4943792;28;20549;-87
2023/05/18 12:30:18;;;;;;;7.55;2.75;;;17.10;64.50;;;;;;4943827;28;20074;-86
2023/05/18 12:32:45;;;;;;;7.72;2.80;;;17.30;62.50;;;;;;4943582;28;20525;-86
2023/05/18 12:35:11;;;;;;;9.32;2.53;;;17.20;65.90;;;;;;4944195;28;20045;-85
2023/05/18 12:37:44;;;;;;;8.85;2.75;;;17.30;63.80;;;;;;4975727;28;20035;-85
2023/05/18 12:40:18;;;;;;;7.38;2.70;;;17.20;63.90;;;;;;4975665;28;20038;-85
2023/05/18 12:43:00;;;;;;;10.00;2.55;;;17.50;63.70;;;;;;4943718;28;20081;-84
2023/05/18 12:45:27;;;;;;;7.22;2.58;;;17.20;63.40;;;;;;4927647;28;20066;-85
2023/05/18 12:47:54;;;;;;;6.30;2.47;;;17.30;64.10;;;;;;4959468;28;20047;-85
2023/05/18 12:50:22;;;;;;;7.43;2.53;;;17.20;63.30;;;;;;4943882;28;20046;-87
2023/05/18 12:52:49;;;;;;;7.60;2.78;;;17.10;63.80;;;;;;4943536;28;20057;-84
2023/05/18 12:55:22;;;;;;;7.95;2.92;;;16.80;62.40;;;;;;4943570;28;20062;-84
2023/05/18 12:58:04;;;;;;;9.63;2.90;;;16.70;67.30;;;;;;4975363;28;20034;-85